sensor_id;sensor_type;location;lat;lon;timestamp;P1;durP1;ratioP1;P2;durP2;ratioP2
25984;SDS011;66753;53.848;10.658;2024-03-29T00:11:26;2.27;;;1.00;;
25984;SDS011;66753;53.848;10.658;2024-03-29T00:26:28;3.03;;;1.00;;
25984;SDS011;66753;53.848;10.658;2024-03-29T00:41:29;2.10;;;0.60;;
25984;SDS011;66753;53.848;10.658;2024-03-29T00:56:31;1.60;;;0.73;;
25984;SDS011;66753;53.848;10.658;2024-03-29T01:11:33;2.83;;;0.60;;
25984;SDS011;66753;53.848;10.658;2024-03-29T01:26:35;1.73;;;0.50;;
25984;SDS011;66753;53.848;10.658;2024-03-29T01:41:37;1.50;;;0.80;;
25984;SDS011;66753;53.848;10.658;2024-03-29T01:56:41;0.80;;;0.50;;
25984;SDS011;66753;53.848;10.658;2024-03-29T02:11:43;1.27;;;0.40;;
25984;SDS011;66753;53.848;10.658;2024-03-29T02:26:45;1.37;;;0.50;;
25984;SDS011;66753;53.848;10.658;2024-03-29T02:41:47;1.90;;;0.50;;
25984;SDS011;66753;53.848;10.658;2024-03-29T02:56:48;3.90;;;0.47;;
25984;SDS011;66753;53.848;10.658;2024-03-29T03:11:50;2.00;;;0.40;;
25984;SDS011;66753;53.848;10.658;2024-03-29T03:26:51;2.40;;;0.50;;
25984;SDS011;66753;53.848;10.658;2024-03-29T03:41:53;0.60;;;0.30;;
25984;SDS011;66753;53.848;10.658;2024-03-29T03:56:54;2.03;;;0.40;;
25984;SDS011;66753;53.848;10.658;2024-03-29T04:11:56;1.13;;;0.47;;
25984;SDS011;66753;53.848;10.658;2024-03-29T04:26:58;4.20;;;0.63;;
25984;SDS011;66753;53.848;10.658;2024-03-29T04:42:00;2.13;;;0.60;;
25984;SDS011;66753;53.848;10.658;2024-03-29T04:57:02;2.97;;;0.40;;
25984;SDS011;66753;53.848;10.658;2024-03-29T05:12:06;3.20;;;0.47;;
25984;SDS011;66753;53.848;10.658;2024-03-29T05:27:08;1.83;;;0.63;;
25984;SDS011;66753;53.848;10.658;2024-03-29T05:42:09;2.53;;;0.50;;
25984;SDS011;66753;53.848;10.658;2024-03-29T05:57:10;1.40;;;0.40;;
25984;SDS011;66753;53.848;10.658;2024-03-29T06:12:12;2.33;;;0.47;;
25984;SDS011;66753;53.848;10.658;2024-03-29T06:27:13;1.60;;;0.37;;
25984;SDS011;66753;53.848;10.658;2024-03-29T06:42:18;1.27;;;0.30;;
25984;SDS011;66753;53.848;10.658;2024-03-29T06:57:20;1.10;;;0.40;;
25984;SDS011;66753;53.848;10.658;2024-03-29T07:12:25;4.43;;;0.43;;
25984;SDS011;66753;53.848;10.658;2024-03-29T07:27:27;1.03;;;0.20;;
25984;SDS011;66753;53.848;10.658;2024-03-29T07:42:33;3.03;;;0.40;;
25984;SDS011;66753;53.848;10.658;2024-03-29T07:57:36;2.10;;;0.30;;
25984;SDS011;66753;53.848;10.658;2024-03-29T08:12:38;2.10;;;0.20;;
25984;SDS011;66753;53.848;10.658;2024-03-29T08:27:39;2.43;;;0.33;;
25984;SDS011;66753;53.848;10.658;2024-03-29T08:42:40;1.10;;;0.20;;
25984;SDS011;66753;53.848;10.658;2024-03-29T08:57:42;1.63;;;0.30;;
25984;SDS011;66753;53.848;10.658;2024-03-29T09:12:44;0.90;;;0.20;;
25984;SDS011;66753;53.848;10.658;2024-03-29T09:27:46;2.47;;;0.30;;
25984;SDS011;66753;53.848;10.658;2024-03-29T09:42:48;1.27;;;0.40;;
25984;SDS011;66753;53.848;10.658;2024-03-29T09:57:52;2.43;;;0.57;;
25984;SDS011;66753;53.848;10.658;2024-03-29T10:12:55;1.47;;;0.33;;
25984;SDS011;66753;53.848;10.658;2024-03-29T10:27:56;1.03;;;0.30;;
25984;SDS011;66753;53.848;10.658;2024-03-29T10:42:58;2.13;;;0.40;;
25984;SDS011;66753;53.848;10.658;2024-03-29T10:58:00;2.70;;;0.60;;
25984;SDS011;66753;53.848;10.658;2024-03-29T11:28:49;2.53;;;0.37;;
25984;SDS011;66753;53.848;10.658;2024-03-29T11:43:52;3.20;;;0.50;;
25984;SDS011;66753;53.848;10.658;2024-03-29T11:58:54;2.20;;;0.60;;
25984;SDS011;66753;53.848;10.658;2024-03-29T12:13:59;1.97;;;0.47;;
25984;SDS011;66753;53.848;10.658;2024-03-29T12:29:02;2.47;;;0.70;;
25984;SDS011;66753;53.848;10.658;2024-03-29T12:44:04;1.10;;;0.40;;
25984;SDS011;66753;53.848;10.658;2024-03-29T12:59:06;3.03;;;1.17;;
25984;SDS011;66753;53.848;10.658;2024-03-29T13:14:08;2.37;;;0.50;;
25984;SDS011;66753;53.848;10.658;2024-03-29T13:29:09;3.37;;;1.43;;
25984;SDS011;66753;53.848;10.658;2024-03-29T13:44:13;1.37;;;0.50;;
25984;SDS011;66753;53.848;10.658;2024-03-29T14:14:18;1.93;;;0.60;;
25984;SDS011;66753;53.848;10.658;2024-03-29T14:29:19;2.00;;;0.70;;
25984;SDS011;66753;53.848;10.658;2024-03-29T14:44:21;2.07;;;0.80;;
25984;SDS011;66753;53.848;10.658;2024-03-29T14:59:23;1.60;;;0.50;;
25984;SDS011;66753;53.848;10.658;2024-03-29T15:14:24;0.83;;;0.40;;
25984;SDS011;66753;53.848;10.658;2024-03-29T15:29:26;0.67;;;0.20;;
25984;SDS011;66753;53.848;10.658;2024-03-29T15:44:27;1.07;;;0.40;;
25984;SDS011;66753;53.848;10.658;2024-03-29T15:59:28;1.97;;;0.70;;
25984;SDS011;66753;53.848;10.658;2024-03-29T16:14:29;1.17;;;0.50;;
25984;SDS011;66753;53.848;10.658;2024-03-29T16:29:31;1.70;;;0.60;;
25984;SDS011;66753;53.848;10.658;2024-03-29T16:44:32;2.13;;;0.60;;
25984;SDS011;66753;53.848;10.658;2024-03-29T16:59:34;2.07;;;0.80;;
25984;SDS011;66753;53.848;10.658;2024-03-29T17:14:37;3.03;;;1.20;;
25984;SDS011;66753;53.848;10.658;2024-03-29T17:29:38;2.00;;;0.90;;
25984;SDS011;66753;53.848;10.658;2024-03-29T17:44:40;2.23;;;0.80;;
25984;SDS011;66753;53.848;10.658;2024-03-29T17:59:42;3.27;;;1.10;;
25984;SDS011;66753;53.848;10.658;2024-03-29T18:14:43;2.50;;;1.10;;
25984;SDS011;66753;53.848;10.658;2024-03-29T18:29:48;1.87;;;0.83;;
25984;SDS011;66753;53.848;10.658;2024-03-29T18:44:51;3.20;;;1.20;;
25984;SDS011;66753;53.848;10.658;2024-03-29T18:59:52;2.50;;;0.93;;
25984;SDS011;66753;53.848;10.658;2024-03-29T19:14:55;3.23;;;1.50;;
25984;SDS011;66753;53.848;10.658;2024-03-29T19:29:56;5.00;;;2.60;;
25984;SDS011;66753;53.848;10.658;2024-03-29T19:44:57;4.17;;;2.17;;
25984;SDS011;66753;53.848;10.658;2024-03-29T19:59:59;8.43;;;3.43;;
25984;SDS011;66753;53.848;10.658;2024-03-29T20:15:01;6.07;;;3.40;;
25984;SDS011;66753;53.848;10.658;2024-03-29T20:30:03;6.53;;;3.77;;
25984;SDS011;66753;53.848;10.658;2024-03-29T20:45:08;5.10;;;3.40;;
25984;SDS011;66753;53.848;10.658;2024-03-29T21:00:10;5.10;;;3.23;;
25984;SDS011;66753;53.848;10.658;2024-03-29T21:15:11;4.67;;;2.30;;
25984;SDS011;66753;53.848;10.658;2024-03-29T21:30:14;5.33;;;3.63;;
25984;SDS011;66753;53.848;10.658;2024-03-29T21:45:17;5.57;;;3.30;;
25984;SDS011;66753;53.848;10.658;2024-03-29T22:00:20;6.17;;;3.67;;
25984;SDS011;66753;53.848;10.658;2024-03-29T22:15:21;5.37;;;2.70;;
25984;SDS011;66753;53.848;10.658;2024-03-29T22:30:23;3.23;;;2.23;;
25984;SDS011;66753;53.848;10.658;2024-03-29T22:45:24;7.47;;;3.27;;
25984;SDS011;66753;53.848;10.658;2024-03-29T23:00:26;5.30;;;3.17;;
25984;SDS011;66753;53.848;10.658;2024-03-29T23:15:27;5.27;;;3.23;;
25984;SDS011;66753;53.848;10.658;2024-03-29T23:30:29;4.87;;;2.70;;
25984;SDS011;66753;53.848;10.658;2024-03-29T23:45:30;4.87;;;2.90;;
